Susan, Virginia
Current Conditions -  °F | °C
As of 10:35 AM on Thursday 30 Oct 2014 (Local Time) from KW75 Reporting Station
Clear Clear  
Wind Chill: 56°   Ceiling: Unl
Heat Index: 56°   Visibility: 10mi
Dew Point: 45°   Wind: 10mph
Humidity: 66%   Direction: 340°NNW
Pressure: 30.05"   Gusts: NA
Location:  37.37°N, 76.31°W
Report Text: KW75 301435Z AUTO 34009KT 10SM CLR 14/07 A3005 RMK AO1 T01360074
Loading
Personal Weather Stations






























Interactive Weather Map
Tropical Storm Tracking
New forecast layout! Learn more

10-Day Weather Forecast

Advertisements
Track Severe Weather on mobile